Time;durP1;ratioP1;P1;durP2;ratioP2;P2;SDS_P1;SDS_P2;PMS_P1;PMS_P2;Temp;Humidity;BMP_temperature;BMP_pressure;BME280_temperature;BME280_humidity;BME280_pressure;Samples;Min_cycle;Max_cycle;Signal;HPM_P1;HPM_P2
2023/05/28 00:00:30;;;;;;;66.32;51.28;;;17.30;76.50;;;;;;4901338;28;90493;-55
2023/05/28 00:02:56;;;;;;;67.60;51.83;;;17.20;76.80;;;;;;4907388;28;89841;-57
2023/05/28 00:05:22;;;;;;;66.60;51.65;;;17.20;76.90;;;;;;4905997;28;90010;-56
2023/05/28 00:07:48;;;;;;;69.53;53.03;;;17.20;76.90;;;;;;4903612;28;90726;-55
2023/05/28 00:10:13;;;;;;;66.03;52.50;;;17.20;76.60;;;;;;4902567;28;90413;-58
2023/05/28 00:12:39;;;;;;;70.95;52.88;;;17.10;76.70;;;;;;4901707;28;91191;-56
2023/05/28 00:15:06;;;;;;;69.18;52.90;;;17.10;77.10;;;;;;4904048;28;89999;-53
2023/05/28 00:17:32;;;;;;;68.25;52.83;;;17.10;76.80;;;;;;4901928;28;90496;-47
2023/05/28 00:19:58;;;;;;;70.32;53.17;;;17.00;77.10;;;;;;4902515;28;89860;-58
2023/05/28 00:22:25;;;;;;;70.05;53.67;;;17.00;77.30;;;;;;4901734;28;89487;-57
2023/05/28 00:24:50;;;;;;;67.38;52.47;;;17.00;77.20;;;;;;4899380;28;89795;-57
2023/05/28 00:27:16;;;;;;;66.68;51.85;;;17.00;77.30;;;;;;4899365;28;92324;-55
2023/05/28 00:29:43;;;;;;;69.50;53.15;;;16.90;77.80;;;;;;4901926;28;90777;-56
2023/05/28 00:32:09;;;;;;;66.53;52.60;;;16.90;77.20;;;;;;4900089;28;89818;-47
2023/05/28 00:34:35;;;;;;;67.97;52.63;;;16.90;77.10;;;;;;4898552;28;89993;-52
2023/05/28 00:37:00;;;;;;;68.22;53.50;;;16.90;77.50;;;;;;4898734;28;91403;-55
2023/05/28 00:39:26;;;;;;;69.80;53.40;;;16.80;77.30;;;;;;4910088;28;91617;-54
2023/05/28 00:42:05;;;;;;;67.95;52.85;;;16.80;77.80;;;;;;4905619;28;90445;-57
2023/05/28 00:44:32;;;;;;;73.20;52.97;;;16.80;77.60;;;;;;4904245;28;89898;-56
2023/05/28 00:46:59;;;;;;;70.80;53.45;;;16.80;77.80;;;;;;4903893;28;89471;-57
2023/05/28 00:49:25;;;;;;;66.78;52.47;;;16.70;77.70;;;;;;4896851;28;89923;-59
2023/05/28 00:51:51;;;;;;;66.35;52.00;;;16.70;78.40;;;;;;4906517;28;89897;-56
2023/05/28 00:54:17;;;;;;;66.13;52.60;;;16.70;78.50;;;;;;4902921;28;89141;-52
2023/05/28 00:56:43;;;;;;;67.63;52.95;;;16.70;78.30;;;;;;4903602;28;94913;-57
2023/05/28 00:59:10;;;;;;;68.82;53.10;;;16.70;78.10;;;;;;4903614;28;91685;-56
2023/05/28 01:01:37;;;;;;;66.82;53.50;;;16.60;78.50;;;;;;4905086;28;91076;-54
2023/05/28 01:04:03;;;;;;;69.45;53.05;;;16.70;78.20;;;;;;4905489;28;90082;-58
2023/05/28 01:06:29;;;;;;;70.97;53.83;;;16.70;78.50;;;;;;4903250;28;90517;-58
2023/05/28 01:08:56;;;;;;;68.45;53.30;;;16.60;78.10;;;;;;4907776;28;89879;-57
2023/05/28 01:11:23;;;;;;;66.70;52.05;;;16.60;77.80;;;;;;4905770;28;91250;-57
2023/05/28 01:13:49;;;;;;;72.28;53.95;;;16.50;78.20;;;;;;4907102;28;89547;-56
2023/05/28 01:16:15;;;;;;;66.60;52.55;;;16.50;78.30;;;;;;4905246;28;90021;-55
2023/05/28 01:18:44;;;;;;;68.75;53.30;;;16.50;78.70;;;;;;4907480;28;89063;-56
2023/05/28 01:21:11;;;;;;;65.20;51.55;;;16.50;78.50;;;;;;4905247;28;90298;-59
2023/05/28 01:23:47;;;;;;;68.57;53.53;;;16.50;78.90;;;;;;4904071;28;90015;-58
2023/05/28 01:26:14;;;;;;;64.47;51.78;;;16.50;78.90;;;;;;4902711;28;91629;-57
2023/05/28 01:28:44;;;;;;;72.07;53.80;;;16.40;79.00;;;;;;4907536;28;90910;-56
2023/05/28 01:31:16;;;;;;;67.85;53.03;;;16.50;79.00;;;;;;4899363;28;89555;-58
2023/05/28 01:33:43;;;;;;;66.00;52.13;;;16.40;78.50;;;;;;4907047;28;90577;-58
2023/05/28 01:36:18;;;;;;;67.82;52.97;;;16.40;79.10;;;;;;4901313;28;90192;-50
2023/05/28 01:38:46;;;;;;;68.18;53.50;;;16.40;78.90;;;;;;4908420;28;89576;-57
2023/05/28 01:41:13;;;;;;;69.60;53.20;;;16.30;78.70;;;;;;4905001;28;89395;-54
2023/05/28 01:43:41;;;;;;;64.63;52.10;;;16.30;79.00;;;;;;4903417;28;88920;-55
2023/05/28 01:46:08;;;;;;;69.03;53.70;;;16.30;79.40;;;;;;4898446;28;90239;-50
2023/05/28 01:48:34;;;;;;;67.35;52.67;;;16.30;78.90;;;;;;4908046;28;90512;-56
2023/05/28 01:51:00;;;;;;;68.18;54.08;;;16.30;79.10;;;;;;4906082;28;91583;-53
2023/05/28 01:53:25;;;;;;;66.03;52.60;;;16.30;79.20;;;;;;4906542;28;89926;-59
2023/05/28 01:55:51;;;;;;;69.15;53.45;;;16.20;79.20;;;;;;4904895;28;91472;-54
2023/05/28 01:58:17;;;;;;;70.72;54.33;;;16.30;79.70;;;;;;4901163;28;90458;-53
2023/05/28 02:00:50;;;;;;;69.88;55.03;;;16.20;78.90;;;;;;4902170;28;89532;-57
2023/05/28 02:03:16;;;;;;;70.32;54.38;;;16.20;79.20;;;;;;4903623;28;89544;-53
2023/05/28 02:05:42;;;;;;;68.85;54.08;;;16.20;79.50;;;;;;4905260;28;90364;-55
2023/05/28 02:08:07;;;;;;;68.68;53.80;;;16.10;79.30;;;;;;4907075;28;88845;-56
2023/05/28 02:10:33;;;;;;;69.20;54.63;;;16.10;79.70;;;;;;4905373;28;91230;-53
2023/05/28 02:13:00;;;;;;;75.95;56.15;;;16.10;79.90;;;;;;4923477;28;89490;-58
2023/05/28 02:15:26;;;;;;;71.85;54.58;;;16.00;78.60;;;;;;4902466;28;90454;-55
2023/05/28 02:17:51;;;;;;;68.72;54.40;;;16.00;80.00;;;;;;4906158;28;89648;-55
2023/05/28 02:20:17;;;;;;;69.13;53.83;;;16.00;79.50;;;;;;4905496;28;90239;-56
2023/05/28 02:22:43;;;;;;;71.80;55.10;;;16.00;80.10;;;;;;4903962;28;89909;-56
2023/05/28 02:25:08;;;;;;;68.22;54.38;;;16.00;79.70;;;;;;4905046;28;89740;-56
2023/05/28 02:27:35;;;;;;;69.20;54.38;;;15.90;79.70;;;;;;4906487;28;90778;-53
2023/05/28 02:30:01;;;;;;;68.93;54.13;;;16.00;80.10;;;;;;4898742;28;90172;-58
2023/05/28 02:32:27;;;;;;;71.38;55.00;;;15.90;80.00;;;;;;4900378;28;88722;-59
2023/05/28 02:34:54;;;;;;;67.68;54.05;;;15.90;79.70;;;;;;4902909;28;89496;-57
2023/05/28 02:37:23;;;;;;;71.45;54.83;;;15.90;80.30;;;;;;4899983;28;89928;-53
2023/05/28 02:39:50;;;;;;;64.40;52.17;;;15.90;80.00;;;;;;4910976;28;90771;-58
2023/05/28 02:42:16;;;;;;;72.38;55.88;;;15.90;80.10;;;;;;4901726;28;90079;-56
2023/05/28 02:44:42;;;;;;;74.18;56.00;;;15.80;79.40;;;;;;4905108;28;90119;-58
2023/05/28 02:47:08;;;;;;;69.82;55.13;;;15.80;80.00;;;;;;4901578;28;89541;-56
2023/05/28 02:49:33;;;;;;;68.75;53.88;;;15.80;80.30;;;;;;4907765;28;89554;-52
2023/05/28 02:51:59;;;;;;;70.15;54.70;;;15.80;80.90;;;;;;4904940;28;89493;-58
2023/05/28 02:54:25;;;;;;;74.28;55.58;;;15.80;80.30;;;;;;4906217;28;91506;-53
2023/05/28 02:56:52;;;;;;;71.38;56.03;;;15.80;80.30;;;;;;4905505;28;89275;-55
2023/05/28 02:59:17;;;;;;;70.63;54.67;;;15.70;80.10;;;;;;4905503;28;89707;-54
2023/05/28 03:01:44;;;;;;;71.65;55.17;;;15.70;81.00;;;;;;4917094;28;89520;-57
2023/05/28 03:04:09;;;;;;;72.57;55.58;;;15.70;81.10;;;;;;4905963;28;92563;-57
2023/05/28 03:06:36;;;;;;;69.18;54.65;;;15.70;80.90;;;;;;4902075;28;92846;-55
2023/05/28 03:09:02;;;;;;;70.05;55.10;;;15.70;80.80;;;;;;4905281;28;90573;-57
2023/05/28 03:11:27;;;;;;;70.30;55.92;;;15.70;80.50;;;;;;4903111;28;89940;-57
2023/05/28 03:13:53;;;;;;;70.53;55.22;;;15.60;80.70;;;;;;4900976;28;90464;-58
2023/05/28 03:16:19;;;;;;;71.05;54.13;;;15.60;80.80;;;;;;4904270;28;89911;-54
2023/05/28 03:18:45;;;;;;;71.47;55.10;;;15.60;81.10;;;;;;4900691;28;90146;-57
2023/05/28 03:21:10;;;;;;;69.40;54.85;;;15.50;81.20;;;;;;4901129;28;88940;-56
2023/05/28 03:23:36;;;;;;;73.82;56.15;;;15.50;80.80;;;;;;4904635;28;89929;-57
2023/05/28 03:26:02;;;;;;;68.65;55.05;;;15.50;80.60;;;;;;4905278;28;89635;-56
2023/05/28 03:28:29;;;;;;;69.63;54.13;;;15.50;80.10;;;;;;4904096;28;91111;-51
2023/05/28 03:30:57;;;;;;;71.18;54.47;;;15.50;80.20;;;;;;4896289;28;89574;-57
2023/05/28 03:33:22;;;;;;;67.88;53.80;;;15.50;80.70;;;;;;4903735;28;89873;-54
2023/05/28 03:35:48;;;;;;;68.68;54.67;;;15.40;81.50;;;;;;4900294;28;89701;-54
2023/05/28 03:38:14;;;;;;;71.68;55.47;;;15.50;81.30;;;;;;4901953;28;89681;-55
2023/05/28 03:40:40;;;;;;;70.75;54.95;;;15.40;80.20;;;;;;4903516;28;89727;-56
2023/05/28 03:43:07;;;;;;;71.60;54.92;;;15.40;80.80;;;;;;4901334;28;90209;-58
2023/05/28 03:45:32;;;;;;;67.80;54.70;;;15.40;80.50;;;;;;4902722;28;89444;-54
2023/05/28 03:47:59;;;;;;;67.72;55.03;;;15.40;81.40;;;;;;4906508;28;89990;-58
2023/05/28 03:50:25;;;;;;;71.30;56.17;;;15.40;80.90;;;;;;4904247;28;90625;-57
2023/05/28 03:52:50;;;;;;;69.95;55.75;;;15.40;81.10;;;;;;4900714;28;90759;-59
2023/05/28 03:55:16;;;;;;;68.95;55.28;;;15.40;80.70;;;;;;4909208;28;91687;-55
2023/05/28 03:57:42;;;;;;;70.60;56.10;;;15.30;81.10;;;;;;4905801;28;89613;-53
2023/05/28 04:00:08;;;;;;;71.38;55.80;;;15.30;80.30;;;;;;4901301;28;90146;-51
2023/05/28 04:02:34;;;;;;;70.75;55.95;;;15.40;80.90;;;;;;4899117;28;90301;-58
2023/05/28 04:05:00;;;;;;;71.13;55.55;;;15.30;81.00;;;;;;4899011;28;90793;-53
2023/05/28 04:07:26;;;;;;;70.88;55.25;;;15.30;81.30;;;;;;4905321;28;89748;-57
2023/05/28 04:09:52;;;;;;;69.88;54.90;;;15.30;81.60;;;;;;4901021;28;88948;-56
2023/05/28 04:12:17;;;;;;;71.35;55.78;;;15.30;81.10;;;;;;4906863;28;90078;-53
2023/05/28 04:14:43;;;;;;;68.97;54.38;;;15.30;81.40;;;;;;4898451;28;89990;-55
2023/05/28 04:17:11;;;;;;;71.97;55.92;;;15.30;81.10;;;;;;4913389;28;92433;-58
2023/05/28 04:19:37;;;;;;;69.57;55.13;;;15.30;81.00;;;;;;4905958;28;89682;-50
2023/05/28 04:22:03;;;;;;;68.68;53.33;;;15.30;80.40;;;;;;4901761;28;90298;-54
2023/05/28 04:24:29;;;;;;;72.03;55.10;;;15.30;81.50;;;;;;4899172;28;90677;-56
2023/05/28 04:26:56;;;;;;;74.85;55.97;;;15.30;81.10;;;;;;4901932;28;89639;-56
2023/05/28 04:29:24;;;;;;;71.05;55.75;;;15.30;81.20;;;;;;4902369;28;90532;-56
2023/05/28 04:31:50;;;;;;;69.40;55.20;;;15.30;80.60;;;;;;4901063;28;90443;-57
2023/05/28 04:34:17;;;;;;;72.07;56.78;;;15.30;81.20;;;;;;4904490;28;89194;-56
2023/05/28 04:36:43;;;;;;;70.50;56.53;;;15.20;80.80;;;;;;4900862;28;89874;-57
2023/05/28 04:39:09;;;;;;;74.72;57.63;;;15.30;80.80;;;;;;4903065;28;89406;-54
2023/05/28 04:41:35;;;;;;;71.22;57.08;;;15.30;80.70;;;;;;4902569;28;90816;-57
2023/05/28 04:44:01;;;;;;;73.57;56.80;;;15.30;81.30;;;;;;4900001;28;89924;-58
2023/05/28 04:46:29;;;;;;;77.05;56.92;;;15.30;80.90;;;;;;4904549;28;90084;-51
2023/05/28 04:48:55;;;;;;;67.30;54.30;;;15.30;80.00;;;;;;4902060;28;89721;-55
2023/05/28 04:51:21;;;;;;;73.55;56.20;;;15.30;80.60;;;;;;4903780;28;90442;-58
2023/05/28 04:53:47;;;;;;;74.70;55.97;;;15.30;80.50;;;;;;4900862;28;90103;-53
2023/05/28 04:56:14;;;;;;;75.65;57.40;;;15.30;80.60;;;;;;4893258;28;90764;-55
2023/05/28 04:58:39;;;;;;;74.07;56.95;;;15.30;80.50;;;;;;4904088;28;90526;-58
2023/05/28 05:01:07;;;;;;;76.47;58.05;;;15.40;80.50;;;;;;4901703;28;91083;-57
2023/05/28 05:03:32;;;;;;;72.75;56.05;;;15.30;80.20;;;;;;4906913;28;90007;-53
2023/05/28 05:05:58;;;;;;;72.07;55.97;;;15.40;80.20;;;;;;4903225;28;91022;-58
2023/05/28 05:08:24;;;;;;;69.90;55.30;;;15.40;80.10;;;;;;4906353;28;90318;-57
2023/05/28 05:10:51;;;;;;;72.32;56.92;;;15.40;79.90;;;;;;4898936;28;95096;-56
2023/05/28 05:13:16;;;;;;;73.63;56.97;;;15.40;79.90;;;;;;4901719;28;91114;-53
2023/05/28 05:15:42;;;;;;;72.88;56.45;;;15.40;79.90;;;;;;4899741;28;90398;-58
2023/05/28 05:18:07;;;;;;;72.38;57.33;;;15.50;79.60;;;;;;4898040;28;90055;-54
2023/05/28 05:20:33;;;;;;;73.05;56.92;;;15.50;79.70;;;;;;4896317;28;90926;-54
2023/05/28 05:22:59;;;;;;;71.03;55.90;;;15.50;79.70;;;;;;4906624;28;89357;-53
2023/05/28 05:25:25;;;;;;;70.65;55.22;;;15.60;79.20;;;;;;4900561;28;90658;-48
2023/05/28 05:27:51;;;;;;;70.20;54.13;;;15.60;79.00;;;;;;4906630;28;89907;-48
2023/05/28 05:30:16;;;;;;;71.78;56.53;;;15.60;79.00;;;;;;4900179;28;91595;-46
2023/05/28 05:32:42;;;;;;;70.88;55.33;;;15.60;78.50;;;;;;4902540;28;89966;-51
2023/05/28 05:35:09;;;;;;;71.22;54.67;;;15.70;78.90;;;;;;4903246;28;89542;-46
2023/05/28 05:37:49;;;;;;;68.43;54.03;;;15.70;79.20;;;;;;4919552;28;90042;-47
2023/05/28 05:40:15;;;;;;;68.72;53.63;;;15.80;79.90;;;;;;4902890;28;90422;-47
2023/05/28 05:42:41;;;;;;;76.80;56.90;;;15.80;78.50;;;;;;4907857;28;90283;-48
2023/05/28 05:45:09;;;;;;;72.20;55.75;;;15.80;77.90;;;;;;4904213;28;91590;-46
2023/05/28 05:47:35;;;;;;;68.32;52.75;;;15.80;78.10;;;;;;4902297;28;89922;-47
2023/05/28 05:50:03;;;;;;;71.03;55.00;;;15.90;78.70;;;;;;4903341;28;90271;-50
2023/05/28 05:52:28;;;;;;;72.00;56.00;;;15.90;77.90;;;;;;4901900;28;90173;-46
2023/05/28 05:54:54;;;;;;;72.97;55.85;;;15.90;77.70;;;;;;4905397;28;91410;-47
2023/05/28 05:57:20;;;;;;;69.38;54.63;;;16.00;77.70;;;;;;4905405;28;89563;-44
2023/05/28 05:59:45;;;;;;;71.93;55.92;;;16.00;77.40;;;;;;4904658;28;89561;-44
2023/05/28 06:02:11;;;;;;;72.22;54.80;;;16.00;77.30;;;;;;4908063;28;90125;-46
2023/05/28 06:04:38;;;;;;;61.90;50.08;;;16.00;77.20;;;;;;4903539;28;89456;-45
2023/05/28 06:07:06;;;;;;;67.35;52.78;;;16.00;78.10;;;;;;4904531;28;90699;-45
2023/05/28 06:09:33;;;;;;;73.60;55.70;;;16.10;77.50;;;;;;4900153;28;89884;-46
2023/05/28 06:11:59;;;;;;;72.55;56.00;;;16.10;76.90;;;;;;4903052;28;89968;-44
2023/05/28 06:14:27;;;;;;;74.30;54.63;;;16.20;76.90;;;;;;4903616;28;89460;-44
2023/05/28 06:16:52;;;;;;;67.10;51.65;;;16.20;76.70;;;;;;4903426;28;90014;-45
2023/05/28 06:19:18;;;;;;;69.63;53.55;;;16.20;76.90;;;;;;4906179;28;91494;-47
2023/05/28 06:21:44;;;;;;;73.43;55.28;;;16.30;77.00;;;;;;4904986;28;90184;-48
2023/05/28 06:24:09;;;;;;;70.97;55.90;;;16.30;76.40;;;;;;4902306;28;89802;-46
2023/05/28 06:26:35;;;;;;;72.90;54.55;;;16.30;76.20;;;;;;4902897;28;89533;-46
2023/05/28 06:29:01;;;;;;;70.20;54.13;;;16.30;76.20;;;;;;4906904;28;90003;-48
2023/05/28 06:31:26;;;;;;;70.82;54.58;;;16.40;76.40;;;;;;4897107;28;91422;-46
2023/05/28 06:33:52;;;;;;;72.28;54.15;;;16.40;76.20;;;;;;4906793;28;89488;-45
2023/05/28 06:36:18;;;;;;;72.68;55.40;;;16.40;76.10;;;;;;4905167;28;89544;-56
2023/05/28 06:38:43;;;;;;;65.75;52.17;;;16.50;76.00;;;;;;4903525;28;91553;-57
2023/05/28 06:41:09;;;;;;;70.65;54.67;;;16.50;76.30;;;;;;4904325;28;89782;-51
2023/05/28 06:43:35;;;;;;;72.57;56.75;;;16.50;75.60;;;;;;4905195;28;91007;-56
2023/05/28 06:46:01;;;;;;;67.28;53.17;;;16.50;75.40;;;;;;4906851;28;89568;-51
2023/05/28 06:48:27;;;;;;;74.95;56.10;;;16.60;75.60;;;;;;4905068;28;91443;-58
2023/05/28 06:50:52;;;;;;;64.57;51.55;;;16.60;75.40;;;;;;4903447;28;89403;-57
2023/05/28 06:53:18;;;;;;;64.32;51.13;;;16.60;76.00;;;;;;4905348;28;91859;-58
2023/05/28 06:55:44;;;;;;;69.40;54.00;;;16.70;75.90;;;;;;4904613;28;92457;-58
2023/05/28 06:58:09;;;;;;;64.50;50.67;;;16.80;75.50;;;;;;4905267;28;90989;-56
2023/05/28 07:00:35;;;;;;;71.35;54.53;;;16.80;75.70;;;;;;4899392;28;89035;-53
2023/05/28 07:03:01;;;;;;;72.35;54.45;;;16.90;75.00;;;;;;4899409;28;90363;-57
2023/05/28 07:05:26;;;;;;;64.13;51.22;;;16.90;74.90;;;;;;4899995;28;90074;-56
2023/05/28 07:07:52;;;;;;;69.10;54.25;;;16.90;75.30;;;;;;4899411;28;93064;-57
2023/05/28 07:10:18;;;;;;;66.68;52.20;;;17.00;74.80;;;;;;4903654;28;89837;-55
2023/05/28 07:12:43;;;;;;;64.78;51.88;;;17.00;75.00;;;;;;4904438;28;89562;-60
2023/05/28 07:15:10;;;;;;;72.30;54.22;;;17.00;74.90;;;;;;4903653;28;90246;-55
2023/05/28 07:17:35;;;;;;;63.85;51.15;;;17.10;74.50;;;;;;4903620;28;90076;-59
2023/05/28 07:20:02;;;;;;;64.70;51.50;;;17.10;74.70;;;;;;4900754;28;90849;-53
2023/05/28 07:22:28;;;;;;;64.65;51.80;;;17.10;74.90;;;;;;4899334;28;90100;-58
2023/05/28 07:24:53;;;;;;;67.40;53.15;;;17.20;74.30;;;;;;4905591;28;89409;-58
2023/05/28 07:27:19;;;;;;;64.85;51.25;;;17.20;74.20;;;;;;4902259;28;90344;-55
2023/05/28 07:29:45;;;;;;;66.85;52.22;;;17.30;74.20;;;;;;4895533;28;89848;-56
2023/05/28 07:32:10;;;;;;;70.05;54.47;;;17.30;74.00;;;;;;4902018;28;91625;-57
2023/05/28 07:34:36;;;;;;;63.63;50.53;;;17.30;73.80;;;;;;4904081;28;89683;-58
2023/05/28 07:37:02;;;;;;;64.35;51.20;;;17.40;74.20;;;;;;4900868;28;90034;-54
2023/05/28 07:39:28;;;;;;;63.85;50.53;;;17.40;73.80;;;;;;4902877;28;90317;-55
2023/05/28 07:41:53;;;;;;;63.83;50.83;;;17.50;73.60;;;;;;4904829;28;89534;-53
2023/05/28 07:44:22;;;;;;;63.00;50.53;;;17.60;73.40;;;;;;4908805;28;89493;-58
2023/05/28 07:46:47;;;;;;;63.00;50.75;;;17.70;73.30;;;;;;4900357;28;89692;-47
2023/05/28 07:49:13;;;;;;;64.05;50.42;;;17.70;73.00;;;;;;4905888;28;90164;-47
2023/05/28 07:51:38;;;;;;;63.35;50.38;;;17.80;73.00;;;;;;4900208;28;90017;-44
2023/05/28 07:54:04;;;;;;;64.35;51.28;;;17.80;73.10;;;;;;4905171;28;89903;-46
2023/05/28 07:56:30;;;;;;;64.53;50.55;;;17.80;73.00;;;;;;4902730;28;90526;-46
2023/05/28 07:58:56;;;;;;;64.15;50.85;;;17.90;73.20;;;;;;4900522;28;91094;-46
2023/05/28 08:01:22;;;;;;;63.38;50.70;;;17.90;73.20;;;;;;4903138;28;89584;-46
2023/05/28 08:03:51;;;;;;;63.33;50.33;;;18.00;73.10;;;;;;4905565;28;89757;-44
2023/05/28 08:06:18;;;;;;;63.85;50.70;;;18.00;73.10;;;;;;4893328;28;90401;-48
2023/05/28 08:08:43;;;;;;;64.72;50.95;;;18.10;72.90;;;;;;4899955;28;90039;-44
2023/05/28 08:11:13;;;;;;;63.83;50.80;;;18.10;72.60;;;;;;4901959;28;89921;-45
2023/05/28 08:13:38;;;;;;;65.45;51.10;;;18.20;72.80;;;;;;4903513;28;90654;-45
2023/05/28 08:16:04;;;;;;;65.22;51.08;;;18.20;72.60;;;;;;4906837;28;90007;-47
2023/05/28 08:18:30;;;;;;;64.80;51.33;;;18.20;72.30;;;;;;4899580;28;90598;-46
2023/05/28 08:20:56;;;;;;;64.68;51.22;;;18.30;72.00;;;;;;4899873;28;91178;-44
2023/05/28 08:23:21;;;;;;;64.72;50.70;;;18.30;71.80;;;;;;4901666;28;89934;-47
2023/05/28 08:25:47;;;;;;;64.13;50.75;;;18.40;71.70;;;;;;4901029;28;90162;-44
2023/05/28 08:28:13;;;;;;;63.97;50.90;;;18.40;71.50;;;;;;4899748;28;90256;-48
2023/05/28 08:30:39;;;;;;;64.03;50.92;;;18.50;71.50;;;;;;4898229;28;89831;-46
2023/05/28 08:33:05;;;;;;;65.18;51.22;;;18.50;71.20;;;;;;4898254;28;90315;-46
2023/05/28 08:35:30;;;;;;;66.70;51.13;;;18.60;71.40;;;;;;4903504;28;92014;-45
2023/05/28 08:37:56;;;;;;;65.85;51.42;;;18.60;71.20;;;;;;4901694;28;89875;-46
2023/05/28 08:40:22;;;;;;;65.20;51.00;;;18.60;71.10;;;;;;4906693;28;89896;-49
2023/05/28 08:42:49;;;;;;;65.95;51.38;;;18.70;71.10;;;;;;4903598;28;89852;-46
2023/05/28 08:45:15;;;;;;;66.00;51.20;;;18.70;70.90;;;;;;4901579;28;90658;-48
2023/05/28 08:47:42;;;;;;;64.72;51.45;;;18.80;71.00;;;;;;4902807;28;90431;-45
2023/05/28 08:50:08;;;;;;;66.20;51.08;;;18.90;70.70;;;;;;4904397;28;89677;-44
2023/05/28 08:52:34;;;;;;;65.35;50.95;;;18.90;70.80;;;;;;4903437;28;89780;-45
2023/05/28 08:55:01;;;;;;;66.35;50.92;;;18.90;70.30;;;;;;4906868;28;89535;-58
2023/05/28 08:57:29;;;;;;;66.47;51.42;;;18.90;70.30;;;;;;4899269;28;91462;-55
2023/05/28 08:59:55;;;;;;;65.38;51.17;;;19.00;70.00;;;;;;4898170;28;90175;-57
2023/05/28 09:02:25;;;;;;;66.25;51.60;;;19.10;70.00;;;;;;4898338;28;89472;-58
2023/05/28 09:04:51;;;;;;;65.22;51.28;;;19.10;69.10;;;;;;4900537;28;89874;-53
2023/05/28 09:07:16;;;;;;;66.85;51.63;;;19.20;69.00;;;;;;4901243;28;90063;-52
2023/05/28 09:09:42;;;;;;;66.60;51.58;;;19.20;69.40;;;;;;4903137;28;91605;-56
2023/05/28 09:12:12;;;;;;;64.75;51.05;;;19.20;68.10;;;;;;4901238;28;90817;-55
2023/05/28 09:14:40;;;;;;;66.72;51.30;;;19.30;68.00;;;;;;4902545;28;90243;-50
2023/05/28 09:17:09;;;;;;;66.10;51.33;;;19.40;68.30;;;;;;4905418;28;90133;-58
2023/05/28 09:19:35;;;;;;;65.88;51.58;;;19.40;67.40;;;;;;4904215;28;89481;-56
2023/05/28 09:22:03;;;;;;;66.20;51.67;;;19.50;67.20;;;;;;4905968;28;90587;-54
2023/05/28 09:24:30;;;;;;;65.75;51.53;;;19.50;67.30;;;;;;4904150;28;90105;-58
2023/05/28 09:26:57;;;;;;;66.03;51.33;;;19.50;66.70;;;;;;4902885;28;89882;-59
2023/05/28 09:29:26;;;;;;;66.20;51.10;;;19.60;66.90;;;;;;4904160;28;90531;-54
2023/05/28 09:31:59;;;;;;;66.65;51.42;;;19.60;66.40;;;;;;4897896;28;92778;-58
2023/05/28 09:34:29;;;;;;;65.55;51.35;;;19.60;66.40;;;;;;4903639;28;90408;-56
2023/05/28 09:37:04;;;;;;;66.18;51.70;;;19.70;66.30;;;;;;4897235;28;90602;-52
2023/05/28 09:39:31;;;;;;;66.50;51.22;;;19.70;66.80;;;;;;4901768;28;90436;-59
2023/05/28 09:42:05;;;;;;;66.03;51.47;;;19.70;66.00;;;;;;4902539;28;90900;-57
2023/05/28 09:44:35;;;;;;;65.80;51.35;;;19.80;65.80;;;;;;4904313;28;90279;-51
2023/05/28 09:47:01;;;;;;;66.75;51.53;;;19.80;66.30;;;;;;4904507;28;91339;-55
2023/05/28 09:49:30;;;;;;;66.43;51.38;;;19.80;66.70;;;;;;4904577;28;90037;-59
2023/05/28 09:51:57;;;;;;;65.97;51.42;;;19.80;65.10;;;;;;4902801;28;89043;-53
2023/05/28 09:54:29;;;;;;;66.80;51.70;;;19.90;65.20;;;;;;4904051;28;90202;-56
2023/05/28 09:56:58;;;;;;;66.10;51.25;;;19.90;65.20;;;;;;4912065;28;89805;-52
2023/05/28 09:59:26;;;;;;;67.20;51.40;;;20.00;65.30;;;;;;4903055;28;90897;-57
2023/05/28 10:02:18;;;;;;;65.80;51.30;;;20.00;64.90;;;;;;4894652;28;89558;-49
2023/05/28 10:04:46;;;;;;;66.22;51.40;;;20.00;65.90;;;;;;4898196;28;96219;-49
2023/05/28 10:07:12;;;;;;;65.93;51.45;;;20.00;65.90;;;;;;4892650;28;89960;-48
2023/05/28 10:09:40;;;;;;;65.68;51.42;;;20.00;64.60;;;;;;4890061;28;92052;-46
2023/05/28 10:12:20;;;;;;;66.47;51.33;;;20.10;65.10;;;;;;4878184;28;90967;-47
2023/05/28 10:14:46;;;;;;;66.30;51.35;;;20.10;64.50;;;;;;4899067;28;90288;-45
2023/05/28 10:17:14;;;;;;;66.30;51.38;;;20.20;64.40;;;;;;4897496;28;90746;-47
2023/05/28 10:19:40;;;;;;;66.22;51.47;;;20.20;64.90;;;;;;4896320;28;92215;-45
2023/05/28 10:22:07;;;;;;;66.80;51.55;;;20.20;64.50;;;;;;4885167;28;92242;-48
2023/05/28 10:24:33;;;;;;;68.18;51.63;;;20.20;64.20;;;;;;4892576;28;92024;-47
2023/05/28 10:27:00;;;;;;;66.65;51.58;;;20.20;64.20;;;;;;4892827;28;89917;-45
2023/05/28 10:29:26;;;;;;;66.40;51.28;;;20.30;63.80;;;;;;4896389;28;90162;-48
2023/05/28 10:32:00;;;;;;;65.93;51.60;;;20.30;63.70;;;;;;4896034;28;89639;-47
2023/05/28 10:34:31;;;;;;;66.50;51.63;;;20.30;63.40;;;;;;4894888;28;91473;-59
2023/05/28 10:36:56;;;;;;;66.47;51.58;;;20.40;63.60;;;;;;4893990;28;91896;-59
2023/05/28 10:39:22;;;;;;;67.15;51.85;;;20.40;63.70;;;;;;4896370;28;90164;-56
2023/05/28 10:41:49;;;;;;;66.60;51.78;;;20.40;63.60;;;;;;4900599;28;89464;-53
2023/05/28 10:44:14;;;;;;;67.57;51.72;;;20.40;63.70;;;;;;4894154;28;91663;-60
2023/05/28 10:46:40;;;;;;;67.00;51.58;;;20.50;63.20;;;;;;4898565;28;91145;-57
2023/05/28 10:49:13;;;;;;;66.47;51.42;;;20.50;63.60;;;;;;4898882;28;96044;-55
2023/05/28 10:51:59;;;;;;;66.30;51.65;;;20.50;63.50;;;;;;4895428;28;90373;-59
2023/05/28 10:54:37;;;;;;;65.57;51.50;;;20.50;64.00;;;;;;4889920;28;89766;-59
2023/05/28 10:57:11;;;;;;;66.75;51.88;;;20.60;64.00;;;;;;4896927;28;94984;-59
2023/05/28 11:00:14;;;;;;;67.32;51.50;;;20.60;62.80;;;;;;4895652;28;89443;-58
2023/05/28 11:02:44;;;;;;;69.00;51.63;;;20.60;62.70;;;;;;4875291;28;90423;-57
2023/05/28 11:05:10;;;;;;;66.37;51.77;;;20.60;62.50;;;;;;4892766;28;91656;-58
2023/05/28 11:07:41;;;;;;;68.15;51.60;;;20.70;62.70;;;;;;4899116;28;89902;-55
2023/05/28 11:10:09;;;;;;;65.90;51.65;;;20.70;63.00;;;;;;4891832;28;91043;-57
2023/05/28 11:12:39;;;;;;;67.22;52.15;;;20.70;62.40;;;;;;4895397;28;90903;-59
2023/05/28 11:15:06;;;;;;;67.70;51.97;;;20.80;62.60;;;;;;4895364;28;90995;-46
2023/05/28 11:17:38;;;;;;;67.72;51.80;;;20.80;63.00;;;;;;4897191;28;90965;-47
2023/05/28 11:20:05;;;;;;;66.20;51.63;;;20.80;62.30;;;;;;4895487;28;92823;-51
2023/05/28 11:22:38;;;;;;;68.07;51.95;;;20.80;62.30;;;;;;4899501;28;90412;-49
2023/05/28 11:25:08;;;;;;;69.72;52.00;;;20.80;62.10;;;;;;4895136;28;90322;-45
2023/05/28 11:27:35;;;;;;;67.53;51.90;;;20.90;62.10;;;;;;4895960;28;90439;-45
2023/05/28 11:30:08;;;;;;;66.50;51.67;;;20.90;62.20;;;;;;4896089;28;89816;-47
2023/05/28 11:32:34;;;;;;;67.32;52.15;;;20.90;62.70;;;;;;4891950;28;90273;-46
2023/05/28 11:35:00;;;;;;;66.80;51.63;;;20.90;62.00;;;;;;4885830;28;92308;-46
2023/05/28 11:37:32;;;;;;;67.07;51.83;;;20.90;62.00;;;;;;4893324;28;90187;-45
2023/05/28 11:39:59;;;;;;;69.78;51.90;;;21.00;61.80;;;;;;4886016;28;91890;-46
2023/05/28 11:42:29;;;;;;;69.28;51.72;;;21.00;61.90;;;;;;4894542;28;89597;-45
2023/05/28 11:44:56;;;;;;;68.18;52.13;;;21.00;61.50;;;;;;4891020;28;90027;-52
2023/05/28 11:47:22;;;;;;;68.00;52.22;;;21.10;61.60;;;;;;4892103;28;90400;-58
2023/05/28 11:49:49;;;;;;;69.07;52.45;;;21.10;62.10;;;;;;4888623;28;90340;-57
2023/05/28 11:52:19;;;;;;;70.00;52.92;;;21.10;62.90;;;;;;4893196;28;90344;-56
2023/05/28 11:54:52;;;;;;;69.53;52.53;;;21.20;63.50;;;;;;4890049;28;90461;-59
2023/05/28 11:57:24;;;;;;;69.38;52.47;;;21.20;64.00;;;;;;4889656;28;90442;-59
2023/05/28 12:00:10;;;;;;;71.38;52.65;;;21.30;64.50;;;;;;4901738;28;90873;-60
2023/05/28 12:02:47;;;;;;;72.35;52.92;;;21.30;64.40;;;;;;4901417;28;91651;-60
2023/05/28 12:05:14;;;;;;;71.20;52.75;;;21.40;64.40;;;;;;4897152;28;91761;-61
2023/05/28 12:07:49;;;;;;;73.88;53.15;;;21.40;63.90;;;;;;4895503;28;91612;-59
2023/05/28 12:10:18;;;;;;;72.78;53.17;;;21.50;64.10;;;;;;4894795;28;92138;-58
2023/05/28 12:12:48;;;;;;;74.03;53.28;;;21.50;63.80;;;;;;4894177;28;90273;-62
2023/05/28 12:15:14;;;;;;;74.70;53.75;;;21.60;63.80;;;;;;4894183;28;90592;-62
2023/05/28 12:17:43;;;;;;;71.32;53.22;;;21.60;63.70;;;;;;4894140;28;90177;-59
2023/05/28 12:20:14;;;;;;;73.43;53.72;;;21.60;63.40;;;;;;4901538;28;90275;-65
2023/05/28 12:22:40;;;;;;;72.30;53.35;;;21.60;63.30;;;;;;4901086;28;88064;-64
2023/05/28 12:25:06;;;;;;;71.72;53.45;;;21.70;63.30;;;;;;4899678;28;90210;-64
2023/05/28 12:27:32;;;;;;;74.35;53.35;;;21.70;63.20;;;;;;4891698;28;89825;-63